Time;durP1;ratioP1;P1;durP2;ratioP2;P2;SDS_P1;SDS_P2;PMS_P1;PMS_P2;Temp;Humidity;BMP_temperature;BMP_pressure;BME280_temperature;BME280_humidity;BME280_pressure;Samples;Min_cycle;Max_cycle;Signal;HPM_P1;HPM_P2
2024/01/09 00:02:14;;;;;;;;;28.50;26.75;;;;;-144.62;100.00;60556.56;5042034;27;54063;-74
2024/01/09 00:04:39;;;;;;;;;30.25;28.00;;;;;-144.62;100.00;60556.56;5040115;28;64431;-73
2024/01/09 00:07:04;;;;;;;;;40.25;34.50;;;;;-144.62;100.00;60556.56;5042070;28;45288;-73
2024/01/09 00:09:33;;;;;;;;;31.00;27.25;;;;;-144.62;100.00;60556.56;5041677;27;45244;-73
2024/01/09 00:11:59;;;;;;;;;30.00;23.00;;;;;-144.62;100.00;60556.56;5042341;27;45494;-73
2024/01/09 00:14:24;;;;;;;;;31.00;21.25;;;;;-144.62;100.00;60556.56;5040659;28;52672;-73
2024/01/09 00:16:49;;;;;;;;;22.50;20.75;;;;;-144.62;100.00;60556.56;5040361;28;45391;-73
2024/01/09 00:19:16;;;;;;;;;26.00;25.25;;;;;-144.62;100.00;60556.56;5035511;27;45535;-73
2024/01/09 00:21:41;;;;;;;;;30.00;22.25;;;;;-144.62;100.00;60556.56;5039460;28;46476;-73
2024/01/09 00:24:07;;;;;;;;;24.25;22.00;;;;;-144.62;100.00;60556.56;5040729;28;45525;-73
2024/01/09 00:26:43;;;;;;;;;25.75;20.75;;;;;-144.62;100.00;60556.56;5041484;27;45537;-73
2024/01/09 00:29:08;;;;;;;;;26.75;22.25;;;;;-144.62;100.00;60556.56;5036025;28;45382;-73
2024/01/09 00:31:34;;;;;;;;;18.50;16.50;;;;;-144.62;100.00;60556.56;5041940;27;45409;-73
2024/01/09 00:33:59;;;;;;;;;22.00;17.50;;;;;-144.62;100.00;60556.56;5040692;28;46609;-73
2024/01/09 00:36:25;;;;;;;;;22.50;19.50;;;;;-144.62;100.00;60556.56;5037590;28;48415;-73
2024/01/09 00:38:50;;;;;;;;;23.25;19.75;;;;;-144.62;100.00;60556.56;5038624;28;45462;-73
2024/01/09 00:41:16;;;;;;;;;25.25;21.00;;;;;-144.62;100.00;60556.56;5042326;27;45460;-73
2024/01/09 00:43:41;;;;;;;;;18.25;17.00;;;;;-144.62;100.00;60556.56;5037566;27;45446;-73
2024/01/09 00:46:06;;;;;;;;;26.50;20.75;;;;;-144.62;100.00;60556.56;5041343;28;45685;-73
2024/01/09 00:48:32;;;;;;;;;20.25;18.75;;;;;-144.62;100.00;60556.56;5040750;28;45555;-73
2024/01/09 00:50:57;;;;;;;;;21.00;17.50;;;;;-144.62;100.00;60556.56;5039687;28;46859;-73
2024/01/09 00:53:22;;;;;;;;;21.75;20.00;;;;;-144.62;100.00;60556.56;5040529;28;45235;-73
2024/01/09 00:55:47;;;;;;;;;25.00;21.00;;;;;-144.62;100.00;60556.56;5040592;28;48797;-73
2024/01/09 00:58:13;;;;;;;;;17.75;14.25;;;;;-144.62;100.00;60556.56;5040693;28;46653;-73
2024/01/09 01:00:38;;;;;;;;;22.25;19.25;;;;;-144.62;100.00;60556.56;5040572;28;45335;-73
2024/01/09 01:03:04;;;;;;;;;17.75;17.75;;;;;-144.62;100.00;60556.56;5040463;28;45528;-74
2024/01/09 01:05:29;;;;;;;;;20.75;20.75;;;;;-144.62;100.00;60556.56;5040198;27;45521;-73
2024/01/09 01:07:54;;;;;;;;;20.00;17.25;;;;;-144.62;100.00;60556.56;5039954;27;45790;-74
2024/01/09 01:10:20;;;;;;;;;20.50;17.50;;;;;-144.62;100.00;60556.56;5039834;28;49015;-73
2024/01/09 01:12:45;;;;;;;;;14.50;14.50;;;;;-144.62;100.00;60556.56;5039991;28;45570;-73
2024/01/09 01:15:10;;;;;;;;;23.75;15.25;;;;;-144.62;100.00;60556.56;5039977;28;45354;-74
2024/01/09 01:17:36;;;;;;;;;20.50;17.00;;;;;-144.62;100.00;60556.56;5040123;28;45626;-73
2024/01/09 01:20:02;;;;;;;;;8.75;8.75;;;;;-144.62;100.00;60556.56;5039418;28;45430;-73
2024/01/09 01:22:27;;;;;;;;;18.25;15.00;;;;;-144.62;100.00;60556.56;5039644;28;45407;-73
2024/01/09 01:24:52;;;;;;;;;25.50;15.00;;;;;-144.62;100.00;60556.56;5039945;28;45312;-74
2024/01/09 01:27:18;;;;;;;;;18.00;14.00;;;;;-144.62;100.00;60556.56;5041541;27;45381;-74
2024/01/09 01:29:43;;;;;;;;;10.50;9.50;;;;;-144.62;100.00;60556.56;5040029;28;46692;-74
2024/01/09 01:32:10;;;;;;;;;24.75;19.75;;;;;-144.62;100.00;60556.56;5037858;28;45314;-74
2024/01/09 01:34:36;;;;;;;;;21.00;19.25;;;;;-144.62;100.00;60556.56;5049457;28;45347;-74
2024/01/09 01:37:02;;;;;;;;;14.75;13.50;;;;;-144.62;100.00;60556.56;5041228;28;45641;-74
2024/01/09 01:39:27;;;;;;;;;22.50;18.00;;;;;-144.62;100.00;60556.56;5039449;28;45548;-74
2024/01/09 01:41:53;;;;;;;;;15.50;12.75;;;;;-144.62;100.00;60556.56;5040910;28;45358;-74
2024/01/09 01:44:18;;;;;;;;;24.50;21.50;;;;;-144.62;100.00;60556.56;5040661;27;45533;-74
2024/01/09 01:46:45;;;;;;;;;15.25;15.25;;;;;-144.62;100.00;60556.56;5040107;28;45485;-75
2024/01/09 01:49:12;;;;;;;;;20.25;14.25;;;;;-144.62;100.00;60556.56;5039664;28;45595;-76
2024/01/09 01:51:38;;;;;;;;;17.25;17.00;;;;;-144.62;100.00;60556.56;5040740;28;45323;-75
2024/01/09 01:54:04;;;;;;;;;17.75;17.50;;;;;-144.62;100.00;60556.56;5035652;28;45530;-74
2024/01/09 01:56:30;;;;;;;;;20.75;17.00;;;;;-144.62;100.00;60556.56;5041194;28;45454;-74
2024/01/09 01:58:55;;;;;;;;;24.50;18.50;;;;;-144.62;100.00;60556.56;5035340;28;47288;-72
2024/01/09 02:01:20;;;;;;;;;16.00;14.25;;;;;-144.62;100.00;60556.56;5040358;28;45406;-74
2024/01/09 02:03:46;;;;;;;;;16.25;14.00;;;;;-144.62;100.00;60556.56;5039402;27;46862;-74
2024/01/09 02:06:12;;;;;;;;;20.75;17.00;;;;;-144.62;100.00;60556.56;5040583;28;45199;-74
2024/01/09 02:08:39;;;;;;;;;11.75;8.00;;;;;-144.62;100.00;60556.56;5039897;27;46556;-74
2024/01/09 02:11:04;;;;;;;;;20.25;17.25;;;;;-144.62;100.00;60556.56;5037173;28;45965;-74
2024/01/09 02:13:30;;;;;;;;;17.00;11.00;;;;;-144.62;100.00;60556.56;5039092;27;45453;-73
2024/01/09 02:15:55;;;;;;;;;14.75;14.75;;;;;-144.62;100.00;60556.56;5039417;28;45653;-73
2024/01/09 02:18:20;;;;;;;;;18.75;14.25;;;;;-144.62;100.00;60556.56;5038557;28;45451;-73
2024/01/09 02:20:46;;;;;;;;;24.33;16.67;;;;;-144.62;100.00;60556.56;5039823;28;54790;-73
2024/01/09 02:23:11;;;;;;;;;23.50;17.00;;;;;-144.62;100.00;60556.56;5032189;28;55353;-73
2024/01/09 02:25:37;;;;;;;;;11.25;7.50;;;;;-144.62;100.00;60556.56;5040449;27;45394;-73
2024/01/09 02:28:23;;;;;;;;;15.25;14.75;;;;;-144.62;100.00;60556.56;5037734;28;47065;-73
2024/01/09 02:30:53;;;;;;;;;15.75;15.25;;;;;-144.62;100.00;60556.56;5033382;28;45450;-73
2024/01/09 02:33:19;;;;;;;;;23.00;18.00;;;;;-144.62;100.00;60556.56;5035883;28;45349;-73
2024/01/09 02:35:44;;;;;;;;;18.50;14.75;;;;;-144.62;100.00;60556.56;5040518;28;45426;-73
2024/01/09 02:38:09;;;;;;;;;14.50;13.50;;;;;-144.62;100.00;60556.56;5039167;28;45388;-73
2024/01/09 02:40:35;;;;;;;;;21.00;14.75;;;;;-144.62;100.00;60556.56;5038382;28;45391;-73
2024/01/09 02:43:00;;;;;;;;;19.00;19.00;;;;;-144.62;100.00;60556.56;5039716;28;45397;-73
2024/01/09 02:45:25;;;;;;;;;20.25;14.25;;;;;-144.62;100.00;60556.56;5040141;28;45442;-73
2024/01/09 02:47:51;;;;;;;;;14.75;14.75;;;;;-144.62;100.00;60556.56;5038363;28;50345;-73
2024/01/09 02:50:16;;;;;;;;;25.25;13.75;;;;;-144.62;100.00;60556.56;5038822;28;45476;-73
2024/01/09 02:52:41;;;;;;;;;17.75;12.50;;;;;-144.62;100.00;60556.56;5039818;28;45319;-73
2024/01/09 02:55:07;;;;;;;;;14.25;12.50;;;;;-144.62;100.00;60556.56;5038021;28;45478;-73
2024/01/09 02:57:32;;;;;;;;;14.00;13.25;;;;;-144.62;100.00;60556.56;5039770;27;46451;-73
2024/01/09 02:59:57;;;;;;;;;14.00;14.00;;;;;-144.62;100.00;60556.56;5039180;28;45536;-73
2024/01/09 03:02:22;;;;;;;;;16.00;14.75;;;;;-144.62;100.00;60556.56;5039505;28;45459;-73
2024/01/09 03:04:48;;;;;;;;;21.50;14.75;;;;;-144.62;100.00;60556.56;5037724;28;45451;-73
2024/01/09 03:07:13;;;;;;;;;21.00;17.75;;;;;-144.62;100.00;60556.56;5039187;28;45307;-73
2024/01/09 03:09:40;;;;;;;;;20.00;17.00;;;;;-144.62;100.00;60556.56;5038914;27;45379;-73
2024/01/09 03:12:07;;;;;;;;;22.00;14.50;;;;;-144.62;100.00;60556.56;5039804;28;45348;-73
2024/01/09 03:14:37;;;;;;;;;15.50;14.75;;;;;-144.62;100.00;60556.56;5039333;28;45462;-73
2024/01/09 03:17:04;;;;;;;;;16.25;11.00;;;;;-144.62;100.00;60556.56;5039332;28;46279;-75
2024/01/09 03:19:29;;;;;;;;;14.50;14.50;;;;;-144.62;100.00;60556.56;5038482;28;45630;-72
2024/01/09 03:21:55;;;;;;;;;19.75;17.50;;;;;-144.62;100.00;60556.56;5039255;28;45213;-74
2024/01/09 03:24:20;;;;;;;;;16.75;16.50;;;;;-144.62;100.00;60556.56;5037720;28;45412;-73
2024/01/09 03:26:45;;;;;;;;;23.00;20.00;;;;;-144.62;100.00;60556.56;5038701;27;45483;-74
2024/01/09 03:29:11;;;;;;;;;19.75;18.25;;;;;-144.62;100.00;60556.56;5038564;28;59829;-73
2024/01/09 03:31:36;;;;;;;;;16.25;14.00;;;;;-144.62;100.00;60556.56;5041030;28;45415;-74
2024/01/09 03:34:02;;;;;;;;;15.50;15.25;;;;;-144.62;100.00;60556.56;5041833;28;45314;-73
2024/01/09 03:36:28;;;;;;;;;19.50;15.25;;;;;-144.62;100.00;60556.56;5040678;28;47808;-73
2024/01/09 03:38:55;;;;;;;;;17.75;15.25;;;;;-144.62;100.00;60556.56;5041461;28;45505;-73
2024/01/09 03:41:20;;;;;;;;;12.50;11.00;;;;;-144.62;100.00;60556.56;5042184;28;45482;-73
2024/01/09 03:43:46;;;;;;;;;21.00;20.75;;;;;-144.62;100.00;60556.56;5041977;28;45347;-75
2024/01/09 03:46:11;;;;;;;;;17.00;14.50;;;;;-144.62;100.00;60556.56;5038961;27;46942;-75
2024/01/09 03:48:36;;;;;;;;;13.75;11.00;;;;;-144.62;100.00;60556.56;5041133;28;48779;-74
2024/01/09 03:51:02;;;;;;;;;16.25;14.00;;;;;-144.62;100.00;60556.56;5040818;28;45254;-74
2024/01/09 03:53:28;;;;;;;;;22.75;17.25;;;;;-144.62;100.00;60556.56;5040848;28;45570;-75
2024/01/09 03:55:53;;;;;;;;;19.00;15.50;;;;;-144.62;100.00;60556.56;5041567;28;51832;-74
2024/01/09 03:58:18;;;;;;;;;27.33;15.00;;;;;-144.62;100.00;60556.56;5039086;27;55159;-74
2024/01/09 04:00:44;;;;;;;;;16.50;13.00;;;;;-144.62;100.00;60556.56;5038585;28;45439;-74
2024/01/09 04:03:09;;;;;;;;;17.00;17.00;;;;;-144.62;100.00;60556.56;5041131;28;45370;-74
2024/01/09 04:05:34;;;;;;;;;18.25;14.00;;;;;-144.62;100.00;60556.56;5039190;28;46038;-74
2024/01/09 04:08:00;;;;;;;;;17.67;16.00;;;;;-144.62;100.00;60556.56;5041760;27;45323;-74
2024/01/09 04:10:25;;;;;;;;;12.25;10.75;;;;;-144.62;100.00;60556.56;5040911;28;45389;-74
2024/01/09 04:12:50;;;;;;;;;26.50;17.25;;;;;-144.62;100.00;60556.56;5042531;28;45322;-74
2024/01/09 04:15:16;;;;;;;;;17.75;13.50;;;;;-144.62;100.00;60556.56;5038206;28;47191;-74
2024/01/09 04:17:41;;;;;;;;;15.25;15.25;;;;;-144.62;100.00;60556.56;5041808;28;45257;-74
2024/01/09 04:20:10;;;;;;;;;14.50;14.25;;;;;-144.62;100.00;60556.56;5035774;28;45318;-74
2024/01/09 04:22:35;;;;;;;;;17.00;14.00;;;;;-144.62;100.00;60556.56;5039306;28;45397;-74
2024/01/09 04:25:01;;;;;;;;;21.50;15.25;;;;;-144.62;100.00;60556.56;5039920;28;61173;-74
2024/01/09 04:27:26;;;;;;;;;19.50;16.00;;;;;-144.62;100.00;60556.56;5041448;28;45265;-74
2024/01/09 04:29:51;;;;;;;;;18.25;13.50;;;;;-144.62;100.00;60556.56;5040306;28;45307;-74
2024/01/09 04:32:17;;;;;;;;;14.50;14.25;;;;;-144.62;100.00;60556.56;5041858;28;45300;-74
2024/01/09 04:34:42;;;;;;;;;16.00;15.50;;;;;-144.62;100.00;60556.56;5034061;28;47198;-74
2024/01/09 04:37:08;;;;;;;;;23.25;18.75;;;;;-144.62;100.00;60556.56;5041214;28;45323;-74
2024/01/09 04:39:33;;;;;;;;;26.50;23.00;;;;;-144.62;100.00;60556.56;5035244;28;51182;-74
2024/01/09 04:41:58;;;;;;;;;15.00;15.00;;;;;-144.62;100.00;60556.56;5037470;27;45604;-74
2024/01/09 04:44:24;;;;;;;;;24.75;17.75;;;;;-144.62;100.00;60556.56;5035933;28;46715;-74
2024/01/09 04:46:49;;;;;;;;;20.00;16.50;;;;;-144.62;100.00;60556.56;5040194;28;45219;-74
2024/01/09 04:49:15;;;;;;;;;23.25;19.00;;;;;-144.62;100.00;60556.56;5038167;28;45435;-74
2024/01/09 04:51:41;;;;;;;;;17.50;15.25;;;;;-144.62;100.00;60556.56;5041223;28;45479;-74
2024/01/09 04:54:06;;;;;;;;;15.75;15.75;;;;;-144.62;100.00;60556.56;5034598;28;48145;-74
2024/01/09 04:56:31;;;;;;;;;21.25;17.00;;;;;-144.62;100.00;60556.56;5040508;28;47493;-74
2024/01/09 04:58:57;;;;;;;;;24.25;17.25;;;;;-144.62;100.00;60556.56;5040316;28;45292;-74
2024/01/09 05:01:22;;;;;;;;;20.25;16.00;;;;;-144.62;100.00;60556.56;5041352;28;45331;-74
2024/01/09 05:03:49;;;;;;;;;23.00;15.75;;;;;-144.62;100.00;60556.56;5039508;28;46142;-75
2024/01/09 05:06:16;;;;;;;;;21.75;16.00;;;;;-144.62;100.00;60556.56;5040722;27;45435;-74
2024/01/09 05:08:41;;;;;;;;;22.75;17.50;;;;;-144.62;100.00;60556.56;5040132;27;45243;-74
2024/01/09 05:11:06;;;;;;;;;21.00;17.00;;;;;-144.62;100.00;60556.56;5041177;28;45603;-74
2024/01/09 05:13:32;;;;;;;;;30.25;21.50;;;;;-144.62;100.00;60556.56;5039697;28;46422;-74
2024/01/09 05:15:57;;;;;;;;;28.75;16.25;;;;;-144.62;100.00;60556.56;5040703;28;45323;-74
2024/01/09 05:18:22;;;;;;;;;23.50;18.25;;;;;-144.62;100.00;60556.56;5039746;27;45422;-74
2024/01/09 05:20:48;;;;;;;;;20.00;14.75;;;;;-144.62;100.00;60556.56;5040744;28;45501;-74
2024/01/09 05:23:13;;;;;;;;;25.50;18.00;;;;;-144.62;100.00;60556.56;5037971;28;55926;-74
2024/01/09 05:25:38;;;;;;;;;23.25;20.50;;;;;-144.62;100.00;60556.56;5040088;28;45415;-74
2024/01/09 05:28:04;;;;;;;;;20.50;19.75;;;;;-144.62;100.00;60556.56;5040226;27;45291;-74
2024/01/09 05:30:29;;;;;;;;;21.50;20.00;;;;;-144.62;100.00;60556.56;5040448;28;45338;-74
2024/01/09 05:32:54;;;;;;;;;32.50;22.50;;;;;-144.62;100.00;60556.56;5040241;28;46296;-74
2024/01/09 05:35:20;;;;;;;;;27.00;20.00;;;;;-144.62;100.00;60556.56;5039393;28;45232;-74
2024/01/09 05:37:45;;;;;;;;;22.50;17.75;;;;;-144.62;100.00;60556.56;5040083;27;45296;-73
2024/01/09 05:40:11;;;;;;;;;20.00;19.25;;;;;-144.62;100.00;60556.56;5040258;28;45407;-75
2024/01/09 05:42:36;;;;;;;;;34.75;23.00;;;;;-144.62;100.00;60556.56;5034089;27;45481;-74
2024/01/09 05:45:02;;;;;;;;;25.75;17.50;;;;;-144.62;100.00;60556.56;5038429;27;45394;-74
2024/01/09 05:47:27;;;;;;;;;26.25;22.50;;;;;-144.62;100.00;60556.56;5038199;28;45300;-75
2024/01/09 05:49:53;;;;;;;;;25.25;22.75;;;;;-144.62;100.00;60556.56;5037552;28;45694;-74
2024/01/09 05:52:18;;;;;;;;;26.75;23.00;;;;;-144.62;100.00;60556.56;5037181;27;46273;-74
2024/01/09 05:54:45;;;;;;;;;35.25;24.25;;;;;-144.62;100.00;60556.56;5033254;28;45452;-74
2024/01/09 05:57:10;;;;;;;;;25.25;19.50;;;;;-144.62;100.00;60556.56;5039522;28;45430;-74
2024/01/09 05:59:36;;;;;;;;;24.00;24.00;;;;;-144.62;100.00;60556.56;5037425;28;45374;-74
2024/01/09 06:02:02;;;;;;;;;30.50;21.00;;;;;-144.62;100.00;60556.56;5039151;28;46031;-73
2024/01/09 06:04:28;;;;;;;;;29.50;26.25;;;;;-144.62;100.00;60556.56;5045590;28;45984;-74
2024/01/09 06:06:54;;;;;;;;;29.00;25.25;;;;;-144.62;100.00;60556.56;5038653;28;45299;-74
2024/01/09 06:09:20;;;;;;;;;27.75;23.50;;;;;-144.62;100.00;60556.56;5037136;27;45417;-74
2024/01/09 06:11:45;;;;;;;;;27.50;26.75;;;;;-144.62;100.00;60556.56;5037188;27;47959;-73
2024/01/09 06:14:10;;;;;;;;;31.75;20.00;;;;;-144.62;100.00;60556.56;5032896;28;45217;-74
2024/01/09 06:16:36;;;;;;;;;32.00;27.25;;;;;-144.62;100.00;60556.56;5037065;28;45438;-74
2024/01/09 06:19:01;;;;;;;;;33.25;27.50;;;;;-144.62;100.00;60556.56;5032511;28;45318;-72
2024/01/09 06:21:26;;;;;;;;;27.50;25.50;;;;;-144.62;100.00;60556.56;5038198;28;46306;-74
2024/01/09 06:23:52;;;;;;;;;33.50;25.25;;;;;-144.62;100.00;60556.56;5038306;28;45381;-74
2024/01/09 06:26:17;;;;;;;;;26.00;23.50;;;;;-144.62;100.00;60556.56;5039075;28;45432;-73
2024/01/09 06:28:43;;;;;;;;;17.25;14.75;;;;;-144.62;100.00;60556.56;5037531;28;45396;-73
2024/01/09 06:31:08;;;;;;;;;25.75;20.50;;;;;-144.62;100.00;60556.56;5037409;28;47789;-73
2024/01/09 06:33:34;;;;;;;;;28.00;23.00;;;;;-144.62;100.00;60556.56;5035961;28;45528;-73
2024/01/09 06:36:00;;;;;;;;;44.50;30.00;;;;;-144.62;100.00;60556.56;5038425;28;45263;-73
2024/01/09 06:38:26;;;;;;;;;35.50;25.50;;;;;-144.62;100.00;60556.56;5037786;28;45540;-74
2024/01/09 06:40:51;;;;;;;;;33.50;25.25;;;;;-144.62;100.00;60556.56;5035837;28;48584;-74
2024/01/09 06:43:16;;;;;;;;;34.75;25.00;;;;;-144.62;100.00;60556.56;5035884;28;51623;-74
2024/01/09 06:45:43;;;;;;;;;27.25;25.75;;;;;-144.62;100.00;60556.56;5036216;28;52998;-73
2024/01/09 06:48:09;;;;;;;;;25.50;23.25;;;;;-144.62;100.00;60556.56;5038240;28;45376;-74
2024/01/09 06:50:34;;;;;;;;;28.50;27.25;;;;;-144.62;100.00;60556.56;5037861;28;46026;-73
2024/01/09 06:53:00;;;;;;;;;30.75;26.50;;;;;-144.62;100.00;60556.56;5037670;27;45443;-74
2024/01/09 06:55:28;;;;;;;;;26.75;24.25;;;;;-144.62;100.00;60556.56;5032160;28;45350;-75
2024/01/09 06:57:53;;;;;;;;;32.25;25.00;;;;;-144.62;100.00;60556.56;5038775;28;45525;-74
2024/01/09 07:00:18;;;;;;;;;35.25;28.00;;;;;-144.62;100.00;60556.56;5037369;28;45477;-74
2024/01/09 07:02:44;;;;;;;;;27.50;23.50;;;;;-144.62;100.00;60556.56;5036257;28;45422;-74
2024/01/09 07:05:10;;;;;;;;;33.25;24.75;;;;;-144.62;100.00;60556.56;5032553;28;45310;-74
2024/01/09 07:07:35;;;;;;;;;30.75;25.75;;;;;-144.62;100.00;60556.56;5037992;27;45573;-74
2024/01/09 07:10:01;;;;;;;;;33.25;24.75;;;;;-144.62;100.00;60556.56;5037620;28;45380;-73
2024/01/09 07:12:27;;;;;;;;;28.00;24.75;;;;;-144.62;100.00;60556.56;5037461;28;45409;-73
2024/01/09 07:14:53;;;;;;;;;22.25;16.25;;;;;-144.62;100.00;60556.56;5031864;28;45421;-74
2024/01/09 07:17:19;;;;;;;;;39.50;28.50;;;;;-144.62;100.00;60556.56;5037738;28;45528;-73
2024/01/09 07:19:44;;;;;;;;;32.50;27.00;;;;;-144.62;100.00;60556.56;5032084;28;45646;-75
2024/01/09 07:22:09;;;;;;;;;32.00;26.25;;;;;-144.62;100.00;60556.56;5037526;28;45306;-73
2024/01/09 07:24:36;;;;;;;;;29.00;25.75;;;;;-144.62;100.00;60556.56;5032965;28;45418;-75
2024/01/09 07:27:01;;;;;;;;;34.25;23.00;;;;;-144.62;100.00;60556.56;5038370;28;45605;-74
2024/01/09 07:29:26;;;;;;;;;25.25;25.00;;;;;-144.62;100.00;60556.56;5035961;28;45432;-75
2024/01/09 07:31:52;;;;;;;;;30.25;26.25;;;;;-144.62;100.00;60556.56;5037264;28;45387;-76
2024/01/09 07:34:17;;;;;;;;;40.75;29.25;;;;;-144.62;100.00;60556.56;5036308;28;45409;-75
2024/01/09 07:36:45;;;;;;;;;34.25;28.00;;;;;-144.62;100.00;60556.56;5029993;28;45505;-75
2024/01/09 07:39:11;;;;;;;;;35.00;25.50;;;;;-144.62;100.00;60556.56;5031440;28;46477;-76
2024/01/09 07:41:36;;;;;;;;;38.50;29.50;;;;;-144.62;100.00;60556.56;5038740;27;45501;-75
2024/01/09 07:44:02;;;;;;;;;36.50;28.00;;;;;-144.62;100.00;60556.56;5031801;28;45454;-76
2024/01/09 07:46:28;;;;;;;;;28.75;27.00;;;;;-144.62;100.00;60556.56;5038124;28;45592;-75
2024/01/09 07:48:54;;;;;;;;;30.75;25.75;;;;;-144.62;100.00;60556.56;5036881;28;45359;-75
2024/01/09 07:51:19;;;;;;;;;39.75;30.00;;;;;-144.62;100.00;60556.56;5037645;28;45299;-75
2024/01/09 07:53:45;;;;;;;;;33.50;27.75;;;;;-144.62;100.00;60556.56;5037690;28;45264;-76
2024/01/09 07:56:18;;;;;;;;;28.75;20.25;;;;;-144.62;100.00;60556.56;5038086;28;45261;-76
2024/01/09 07:58:44;;;;;;;;;36.00;26.75;;;;;-144.62;100.00;60556.56;5050373;28;45666;-74
2024/01/09 08:01:13;;;;;;;;;35.50;31.50;;;;;-144.62;100.00;60556.56;5036758;28;45581;-77
2024/01/09 08:03:40;;;;;;;;;39.50;32.75;;;;;-144.62;100.00;60556.56;5034030;27;45485;-75
2024/01/09 08:06:15;;;;;;;;;43.50;33.50;;;;;-144.62;100.00;60556.56;5035812;28;45357;-74
2024/01/09 08:08:41;;;;;;;;;33.75;29.25;;;;;-144.62;100.00;60556.56;5036855;27;45471;-76
2024/01/09 08:11:07;;;;;;;;;30.25;22.75;;;;;-144.62;100.00;60556.56;5037566;28;45344;-75
2024/01/09 08:13:33;;;;;;;;;40.25;36.75;;;;;-144.62;100.00;60556.56;5036976;28;45434;-77
2024/01/09 08:15:58;;;;;;;;;41.75;31.75;;;;;-144.62;100.00;60556.56;5039120;28;45508;-75
2024/01/09 08:18:24;;;;;;;;;37.25;30.25;;;;;-144.62;100.00;60556.56;5038265;28;47958;-75
2024/01/09 08:20:49;;;;;;;;;43.50;31.25;;;;;-144.62;100.00;60556.56;5034540;28;45248;-75
2024/01/09 08:23:15;;;;;;;;;41.75;29.00;;;;;-144.62;100.00;60556.56;5040552;27;45175;-75
2024/01/09 08:25:41;;;;;;;;;24.50;20.00;;;;;-144.62;100.00;60556.56;5040913;28;45502;-75
2024/01/09 08:28:06;;;;;;;;;33.25;27.75;;;;;-144.62;100.00;60556.56;5040232;28;46026;-74
2024/01/09 08:30:31;;;;;;;;;41.75;32.25;;;;;-144.62;100.00;60556.56;5040541;28;45231;-75
2024/01/09 08:32:57;;;;;;;;;34.75;25.00;;;;;-144.62;100.00;60556.56;5039759;28;45226;-75
2024/01/09 08:35:22;;;;;;;;;35.50;30.00;;;;;-144.62;100.00;60556.56;5038736;27;45646;-76
2024/01/09 08:37:47;;;;;;;;;26.75;25.25;;;;;-144.62;100.00;60556.56;5040972;27;45308;-75
2024/01/09 08:40:14;;;;;;;;;34.25;26.00;;;;;-144.62;100.00;60556.56;5040493;28;45651;-75
2024/01/09 08:42:39;;;;;;;;;38.75;30.75;;;;;-144.62;100.00;60556.56;5040091;28;45340;-75
2024/01/09 08:45:05;;;;;;;;;37.75;34.50;;;;;-144.62;100.00;60556.56;5040030;28;45735;-75
2024/01/09 08:47:30;;;;;;;;;20.75;18.00;;;;;-144.62;100.00;60556.56;5039874;28;46576;-77
2024/01/09 08:49:55;;;;;;;;;26.75;24.50;;;;;-144.62;100.00;60556.56;5039398;28;45440;-76
2024/01/09 08:52:24;;;;;;;;;35.75;27.50;;;;;-144.62;100.00;60556.56;5040659;28;45512;-76
2024/01/09 08:54:52;;;;;;;;;35.50;29.00;;;;;-144.62;100.00;60556.56;5040712;28;45434;-77
2024/01/09 08:57:18;;;;;;;;;35.00;27.00;;;;;-144.62;100.00;60556.56;5039897;27;47107;-76
2024/01/09 08:59:44;;;;;;;;;25.25;24.00;;;;;-144.62;100.00;60556.56;5039418;28;45734;-76
2024/01/09 09:02:09;;;;;;;;;25.75;22.25;;;;;-144.62;100.00;60556.56;5042346;28;45286;-74
2024/01/09 09:04:35;;;;;;;;;42.25;29.00;;;;;-144.62;100.00;60556.56;5038832;27;45643;-76
2024/01/09 09:07:02;;;;;;;;;45.00;32.00;;;;;-144.62;100.00;60556.56;5040112;28;46820;-75
2024/01/09 09:09:28;;;;;;;;;30.75;30.75;;;;;-144.62;100.00;60556.56;5037602;27;45484;-76
2024/01/09 09:11:53;;;;;;;;;35.75;30.25;;;;;-144.62;100.00;60556.56;5040993;28;45246;-75
2024/01/09 09:14:18;;;;;;;;;31.75;29.75;;;;;-144.62;100.00;60556.56;5040480;28;45278;-74
2024/01/09 09:16:44;;;;;;;;;35.25;26.00;;;;;-144.62;100.00;60556.56;5040347;28;46049;-75
2024/01/09 09:19:09;;;;;;;;;39.00;26.75;;;;;-144.62;100.00;60556.56;5038887;28;45327;-75
2024/01/09 09:21:35;;;;;;;;;28.00;25.00;;;;;-144.62;100.00;60556.56;5032104;28;45365;-76
2024/01/09 09:24:00;;;;;;;;;34.25;28.50;;;;;-144.62;100.00;60556.56;5035545;28;45242;-75
2024/01/09 09:26:27;;;;;;;;;42.25;27.25;;;;;-144.62;100.00;60556.56;5039727;28;45593;-74
2024/01/09 09:28:53;;;;;;;;;34.75;27.00;;;;;-144.62;100.00;60556.56;5040175;28;45473;-76
2024/01/09 09:31:18;;;;;;;;;34.25;29.75;;;;;-144.62;100.00;60556.56;5040216;28;45504;-76
2024/01/09 09:33:44;;;;;;;;;31.25;26.50;;;;;-144.62;100.00;60556.56;5038938;28;45363;-76
2024/01/09 09:36:11;;;;;;;;;39.00;29.75;;;;;-144.62;100.00;60556.56;5041159;27;45330;-74
2024/01/09 09:38:37;;;;;;;;;35.75;32.50;;;;;-144.62;100.00;60556.56;5039903;28;45725;-75
2024/01/09 09:41:08;;;;;;;;;32.75;24.25;;;;;-144.62;100.00;60556.56;5038482;28;45453;-74
2024/01/09 09:43:35;;;;;;;;;30.50;29.25;;;;;-144.62;100.00;60556.56;5039263;28;45484;-76
2024/01/09 09:46:02;;;;;;;;;44.25;34.75;;;;;-144.62;100.00;60556.56;5040282;28;46562;-75
2024/01/09 09:48:28;;;;;;;;;38.25;33.25;;;;;-144.62;100.00;60556.56;5039667;28;45523;-75
2024/01/09 09:50:54;;;;;;;;;35.00;33.25;;;;;-144.62;100.00;60556.56;5036714;27;45448;-75
2024/01/09 09:53:27;;;;;;;;;36.50;30.25;;;;;-144.62;100.00;60556.56;5039280;28;45518;-76
2024/01/09 09:55:53;;;;;;;;;37.25;33.00;;;;;-144.62;100.00;60556.56;5038420;28;46590;-75
2024/01/09 09:58:19;;;;;;;;;30.50;27.50;;;;;-144.62;100.00;60556.56;5039556;28;45537;-75
2024/01/09 10:00:44;;;;;;;;;27.75;23.75;;;;;-144.62;100.00;60556.56;5038752;27;45371;-75
2024/01/09 10:03:12;;;;;;;;;31.25;26.75;;;;;-144.62;100.00;60556.56;5040211;28;45219;-76
2024/01/09 10:05:40;;;;;;;;;29.75;28.00;;;;;-144.62;100.00;60556.56;5039285;28;45472;-76
2024/01/09 10:08:09;;;;;;;;;37.25;28.50;;;;;-144.62;100.00;60556.56;5040502;27;45319;-75
2024/01/09 10:10:36;;;;;;;;;34.50;25.00;;;;;-144.62;100.00;60556.56;5036824;28;45370;-74
2024/01/09 10:13:02;;;;;;;;;32.75;28.00;;;;;-144.62;100.00;60556.56;5040580;28;45362;-76
2024/01/09 10:15:28;;;;;;;;;32.25;24.25;;;;;-144.62;100.00;60556.56;5039003;28;45626;-75
2024/01/09 10:17:53;;;;;;;;;34.25;30.50;;;;;-144.62;100.00;60556.56;5040597;27;45424;-75
2024/01/09 10:20:19;;;;;;;;;42.25;30.00;;;;;-144.62;100.00;60556.56;5035018;27;45324;-75
2024/01/09 10:22:44;;;;;;;;;29.75;25.25;;;;;-144.62;100.00;60556.56;5040492;28;45350;-74
2024/01/09 10:25:11;;;;;;;;;39.25;31.75;;;;;-144.62;100.00;60556.56;5039170;28;45776;-75
2024/01/09 10:27:38;;;;;;;;;33.75;30.00;;;;;-144.62;100.00;60556.56;5039549;28;45318;-76
2024/01/09 10:30:05;;;;;;;;;41.75;35.50;;;;;-144.62;100.00;60556.56;5038985;28;45296;-76
2024/01/09 10:32:34;;;;;;;;;41.50;30.25;;;;;-144.62;100.00;60556.56;5038932;28;45190;-75
2024/01/09 10:35:00;;;;;;;;;36.75;31.25;;;;;-144.62;100.00;60556.56;5038166;28;46661;-75
2024/01/09 10:37:25;;;;;;;;;29.75;26.50;;;;;-144.62;100.00;60556.56;5039742;27;45419;-74
2024/01/09 10:39:51;;;;;;;;;32.75;30.25;;;;;-144.62;100.00;60556.56;5039240;27;45272;-75
2024/01/09 10:42:17;;;;;;;;;35.75;23.50;;;;;-144.62;100.00;60556.56;5040209;28;45452;-75
2024/01/09 10:44:45;;;;;;;;;45.25;30.50;;;;;-144.62;100.00;60556.56;5034852;28;45788;-75
2024/01/09 10:47:14;;;;;;;;;33.25;29.00;;;;;-144.62;100.00;60556.56;5039348;28;45330;-76
2024/01/09 10:49:40;;;;;;;;;35.00;34.00;;;;;-144.62;100.00;60556.56;5033177;28;45458;-75